Fremont, MI

6:29 AM EDT on September 20, 2019 (GMT -0400)
Fremont

Weather History for KFFX - June, 2019

Change the Weather History Date:

Thursday, June 13, 2019

  Actual Average (KMKG) Record (KMKG)
Temperature  
Mean Temperature 55 °F -  
Max Temperature 62 °F 76 °F 89 °F (2007)
Min Temperature 48 °F 55 °F 43 °F (1985)
Degree Days  
Heating Degree Days 10    
Growing Degree Days 5 (Base 50)    
Moisture  
Dew Point 48 °F    
Average Humidity 79    
Maximum Humidity 99    
Minimum Humidity 29    
Precipitation  
Precipitation 0.00 in - - ()
Sea Level Pressure  
Sea Level Pressure 29.79 in    
Wind  
Wind Speed 8 mph ()    
Max Wind Speed 23 mph    
Max Gust Speed 33 mph    
Visibility 9.9 miles    
Events Rain    
Averages and records for this station are not official NWS values.
T = Trace of Precipitation, MM = Missing Value Source: Averaged Metar Reports

Daily Weather History Graph

Daily Weather History Graph

Search for Another Location

Airport or City:

Astronomy

Jun. 13, 2019 Rise Set
Actual Time 6:02 AM EDT 9:25 PM EDT
Civil Twilight 5:27 AM EDT 10:01 PM EDT
Nautical Twilight 4:40 AM EDT 10:47 PM EDT
Astronomical Twilight 3:42 AM EDT 11:45 PM EDT
Moon 5:32 PM EDT (6/13) 3:56 AM EDT (6/13)
Length of Visible Light 16h 34m
Length of Day
15h 22m
Waxing Gibbous, 85% of the Moon is Illuminated
Jun 13
Waxing Gibbous
Jun 17
Full
Jun 25
Last Quarter
Jul 2
New
Jul 9
First Quarter

Hourly Weather History & Observations

Time (EDT) Temp. Dew Point Humidity Pressure Visibility Wind Dir Wind Speed Gust Speed Precip Events Conditions
12:15 AM 57.6 °F 56.8 °F 97% 29.79 in 10.0 mi ENE 5.8 mph - N/A   Mostly Cloudy
12:16 AM 57.6 °F 57.0 °F 98% 29.78 in 10.0 mi ENE 5.8 mph - N/A   Mostly Cloudy
12:35 AM 58.1 °F 57.4 °F 97% 29.78 in 10.0 mi East 5.8 mph - N/A   Overcast
12:40 AM 58.1 °F 57.4 °F 97% 29.78 in 10.0 mi ESE 4.6 mph - N/A   Overcast
12:58 AM 57.7 °F 57.2 °F 98% 29.76 in 10.0 mi NE 6.9 mph - N/A   Overcast
1:16 AM 57.6 °F 56.8 °F 97% 29.76 in 10.0 mi NE 4.6 mph - N/A   Overcast
1:35 AM 57.2 °F 56.7 °F 98% 29.75 in 10.0 mi ENE 5.8 mph - N/A   Mostly Cloudy
1:55 AM 57.4 °F 56.5 °F 97% 29.75 in 10.0 mi NE 3.5 mph - N/A   Overcast
1:56 AM 57.4 °F 56.5 °F 97% 29.75 in 10.0 mi ENE 3.5 mph - N/A   Overcast
2:19 AM 57.2 °F 56.3 °F 97% 29.74 in 10.0 mi ENE 6.9 mph - N/A   Overcast
2:37 AM 56.8 °F 55.8 °F 96% 29.74 in 10.0 mi ENE 4.6 mph - N/A   Overcast
2:55 AM 56.7 °F 55.6 °F 96% 29.72 in 10.0 mi ENE 8.1 mph - N/A Rain Light Rain
3:15 AM 56.3 °F 55.6 °F 97% 29.72 in 10.0 mi East 4.6 mph - N/A   Light Drizzle
3:16 AM 56.3 °F 55.6 °F 97% 29.72 in 10.0 mi East 4.6 mph - N/A   Light Drizzle
3:35 AM 56.3 °F 55.4 °F 97% 29.72 in 10.0 mi ESE 4.6 mph - N/A   Drizzle
3:40 AM 56.3 °F 55.4 °F 97% 29.72 in 10.0 mi ESE 4.6 mph - N/A Rain Rain
4:16 AM 55.9 °F 55.4 °F 98% 29.70 in 10.0 mi East 4.6 mph - N/A   Drizzle
4:35 AM 55.9 °F 55.4 °F 98% 29.70 in 10.0 mi East 8.1 mph - N/A   Drizzle
4:36 AM 55.9 °F 55.4 °F 98% 29.70 in 10.0 mi East 6.9 mph - N/A   Drizzle
4:55 AM 55.8 °F 55.0 °F 97% 29.69 in 10.0 mi East 8.1 mph - N/A   Drizzle
4:56 AM 55.8 °F 55.0 °F 97% 29.69 in 10.0 mi East 8.1 mph - N/A   Drizzle
5:19 AM 55.6 °F 54.9 °F 97% 29.69 in 10.0 mi ENE 5.8 mph - N/A Rain Rain
5:37 AM 55.4 °F 54.5 °F 97% 29.69 in 10.0 mi ENE 5.8 mph - N/A   Drizzle
5:55 AM 55.4 °F 53.8 °F 94% 29.69 in 10.0 mi ENE 5.8 mph - N/A   Drizzle
6:15 AM 54.9 °F 53.6 °F 96% 29.69 in 10.0 mi ENE 5.8 mph - N/A Rain Light Rain
6:35 AM 54.9 °F 54.1 °F 97% 29.70 in 10.0 mi North 3.5 mph - N/A Rain Rain
6:40 AM 54.9 °F 54.3 °F 98% 29.70 in 10.0 mi North 4.6 mph - N/A Rain Rain
6:58 AM 54.7 °F 53.8 °F 97% 29.70 in 10.0 mi NNE 5.8 mph - N/A Rain Light Rain
7:16 AM 55.0 °F 54.5 °F 98% 29.70 in 10.0 mi North 3.5 mph - N/A Rain Rain
7:35 AM 52.9 °F 52.0 °F 97% 29.70 in 10.0 mi North 5.8 mph - N/A Rain Rain
7:36 AM 52.7 °F 52.0 °F 97% 29.71 in 10.0 mi North 5.8 mph - N/A Rain Rain
7:55 AM 51.6 °F 51.1 °F 98% 29.71 in 7.0 mi NW 9.2 mph - N/A Rain Light Rain
7:56 AM 51.6 °F 51.1 °F 98% 29.71 in 7.0 mi NW 10.4 mph - N/A Rain Light Rain
8:19 AM 51.3 °F 50.9 °F 99% 29.71 in 10.0 mi NNW 9.2 mph - N/A Rain Rain
8:37 AM 51.6 °F 51.1 °F 98% 29.72 in 10.0 mi NNW 9.2 mph - N/A Rain Rain
8:55 AM 51.8 °F 51.3 °F 98% 29.72 in 10.0 mi NNW 10.4 mph - N/A Rain Light Rain
8:56 AM 51.8 °F 51.3 °F 98% 29.72 in 10.0 mi NNW 10.4 mph - N/A Rain Light Rain
9:15 AM 51.8 °F 51.1 °F 97% 29.72 in 10.0 mi NNW 11.5 mph 16.1 mph N/A Rain Rain
9:16 AM 51.8 °F 51.1 °F 97% 29.72 in 10.0 mi NNW 12.7 mph - N/A Rain Light Rain
9:35 AM 51.8 °F 51.1 °F 97% 29.73 in 10.0 mi NNW 11.5 mph - N/A Rain Light Rain
9:40 AM 51.8 °F 51.1 °F 97% 29.73 in 10.0 mi NNW 10.4 mph - N/A Rain Light Rain
9:58 AM 51.6 °F 50.9 °F 97% 29.73 in 7.0 mi NNW 11.5 mph - N/A Rain Heavy Rain
10:16 AM 51.3 °F 50.4 °F 97% 29.73 in 10.0 mi North 11.5 mph 18.4 mph N/A Rain Rain
10:35 AM 51.3 °F 50.9 °F 99% 29.74 in 7.0 mi North 16.1 mph 20.7 mph N/A Rain Rain
10:55 AM 51.8 °F 51.3 °F 98% 29.74 in 10.0 mi North 13.8 mph 18.4 mph N/A Rain Rain
11:19 AM 52.7 °F 52.0 °F 97% 29.75 in 10.0 mi NNW 12.7 mph - N/A Rain Light Rain
11:37 AM 52.7 °F 51.8 °F 97% 29.75 in 10.0 mi NNW 13.8 mph 19.6 mph N/A Rain Light Rain
11:55 AM 52.7 °F 52.0 °F 97% 29.75 in 10.0 mi NNW 13.8 mph 19.6 mph N/A Rain Rain
11:56 AM 52.7 °F 51.8 °F 97% 29.75 in 10.0 mi NNW 13.8 mph 19.6 mph N/A Rain Rain
12:15 PM 52.9 °F 52.2 °F 97% 29.76 in 10.0 mi NNW 11.5 mph 20.7 mph N/A   Drizzle
12:16 PM 53.1 °F 52.3 °F 97% 29.76 in 10.0 mi North 13.8 mph 20.7 mph N/A   Drizzle
12:35 PM 53.6 °F 52.3 °F 95% 29.77 in 10.0 mi NNW 12.7 mph 19.6 mph N/A   Light Drizzle
12:58 PM 53.8 °F 51.8 °F 93% 29.78 in 10.0 mi NNW 17.3 mph 21.9 mph N/A   Overcast
1:16 PM 53.6 °F 50.9 °F 91% 29.78 in 10.0 mi NNW 17.3 mph 23.0 mph N/A   Overcast
1:35 PM 53.6 °F 50.2 °F 88% 29.79 in 10.0 mi NNW 13.8 mph 23.0 mph N/A   Overcast
1:36 PM 53.6 °F 50.2 °F 88% 29.79 in 10.0 mi NNW 13.8 mph 23.0 mph N/A   Overcast
1:55 PM 54.1 °F 49.5 °F 84% 29.80 in 10.0 mi NNW 12.7 mph 23.0 mph N/A   Overcast
1:56 PM 54.3 °F 49.6 °F 84% 29.80 in 10.0 mi NNW 12.7 mph 23.0 mph N/A   Overcast
2:19 PM 56.3 °F 49.3 °F 77% 29.80 in 10.0 mi NNW 21.9 mph 27.6 mph N/A   Overcast
2:56 PM 58.8 °F 48.9 °F 70% 29.81 in 10.0 mi North 15.0 mph 24.2 mph N/A   Overcast
3:15 PM 58.8 °F 47.8 °F 67% 29.81 in 10.0 mi NNW 13.8 mph 23.0 mph N/A   Overcast
3:35 PM 59.9 °F 47.3 °F 63% 29.82 in 10.0 mi NNW 20.7 mph - N/A   Overcast
3:58 PM 61.0 °F 46.8 °F 59% 29.82 in 10.0 mi NNW 21.9 mph 28.8 mph N/A   Mostly Cloudy
4:16 PM 60.6 °F 44.1 °F 54% 29.83 in 10.0 mi NNW 18.4 mph 29.9 mph N/A   Mostly Cloudy
4:35 PM 61.9 °F 44.1 °F 52% 29.83 in 10.0 mi NNW 23.0 mph 33.4 mph N/A   Scattered Clouds
4:36 PM 61.9 °F 43.7 °F 51% 29.84 in 10.0 mi NNW 21.9 mph 33.4 mph N/A   Scattered Clouds
4:55 PM 61.3 °F 41.9 °F 49% 29.84 in 10.0 mi NNW 19.6 mph 29.9 mph N/A   Scattered Clouds
5:19 PM 61.9 °F 40.3 °F 45% 29.85 in 10.0 mi NNW 23.0 mph 28.8 mph N/A   Clear
5:37 PM 61.9 °F 37.8 °F 41% 29.85 in 10.0 mi North 17.3 mph 28.8 mph N/A   Clear
5:55 PM 62.1 °F 36.0 °F 38% 29.86 in 10.0 mi NNW 20.7 mph 27.6 mph N/A   Clear
6:15 PM 61.5 °F 34.3 °F 36% 29.87 in 10.0 mi North 16.1 mph 31.1 mph N/A   Clear
6:16 PM 61.5 °F 34.5 °F 36% 29.87 in 10.0 mi NNW 18.4 mph 31.1 mph N/A   Clear
6:35 PM 61.5 °F 29.1 °F 29% 29.87 in 10.0 mi NNW 23.0 mph 31.1 mph N/A   Clear
6:40 PM 61.3 °F 29.7 °F 30% 29.87 in 10.0 mi NNW 18.4 mph 31.1 mph N/A   Clear
6:58 PM 61.7 °F 31.3 °F 32% 29.87 in 10.0 mi NNW 16.1 mph 21.9 mph N/A   Clear
7:16 PM 62.1 °F 31.6 °F 32% 29.88 in 10.0 mi North 17.3 mph 25.3 mph N/A   Clear
7:35 PM 62.1 °F 32.2 °F 33% 29.88 in 10.0 mi NNW 18.4 mph 24.2 mph N/A   Clear
7:55 PM 61.5 °F 32.0 °F 33% 29.89 in 10.0 mi NNW 11.5 mph 21.9 mph N/A   Clear
7:56 PM 61.5 °F 32.4 °F 33% 29.89 in 10.0 mi NNW 12.7 mph 21.9 mph N/A   Clear
8:19 PM 60.4 °F 35.1 °F 39% 29.89 in 10.0 mi NW 6.9 mph - N/A   Scattered Clouds
8:37 PM 59.9 °F 35.1 °F 39% 29.89 in 10.0 mi NW 6.9 mph - N/A   Scattered Clouds
8:55 PM 58.5 °F 36.0 °F 43% 29.89 in 10.0 mi NW 8.1 mph - N/A   Scattered Clouds
9:15 PM 56.7 °F 37.0 °F 48% 29.90 in 10.0 mi WNW 5.8 mph - N/A   Clear
9:35 PM 54.9 °F 38.1 °F 53% 29.91 in 10.0 mi WNW 5.8 mph - N/A   Clear
9:58 PM 53.8 °F 37.9 °F 55% 29.91 in 10.0 mi West 5.8 mph - N/A   Clear
10:16 PM 53.6 °F 38.1 °F 56% 29.92 in 10.0 mi West 4.6 mph - N/A   Clear
10:35 PM 53.1 °F 38.3 °F 57% 29.92 in 10.0 mi West 3.5 mph - N/A   Clear
10:36 PM 53.1 °F 38.3 °F 57% 29.92 in 10.0 mi West 3.5 mph - N/A   Clear
10:55 PM 52.2 °F 39.7 °F 63% 29.93 in 10.0 mi WSW 5.8 mph - N/A   Clear
11:19 PM 50.0 °F 41.4 °F 72% 29.94 in 10.0 mi WSW 4.6 mph - N/A   Clear
11:37 PM 48.7 °F 41.4 °F 76% 29.94 in 10.0 mi West 3.5 mph - N/A   Clear
11:55 PM 48.0 °F 40.5 °F 75% 29.95 in 10.0 mi West 3.5 mph - N/A   Clear
11:56 PM 48.0 °F 40.5 °F 75% 29.95 in 10.0 mi West 4.6 mph - N/A   Clear